Galien, MI (49113)

12:11 AM EDT on September 28, 2016 (GMT -0400)
Galien Township, Galien MI | | Change Station

Elev 735 ft 41.79 °N, 86.50 °W | Updated 0 second ago

Clear
Clear
54.7 °F
Feels Like 54.7 °F
N
1.3
Wind Variable Wind from South
Gusts 7.4 mph

Today
High -- | Low -- °F
--% Chance of Precip.
Yesterday
High -- | Low -- °F
Precip. -- in
Pressure 29.81 in
Visibility 10.0 miles
Clouds Clear
Dew Point 51 °F
Humidity 88%
Rainfall 0.00 in
Snow Depth Not available.
7:40 AM 7:31 PM
Waning Crescent, 8% visible
METAR KSBN 280354Z 11003KT 10SM CLR 12/08 A2981 RMK AO2 SLP092 T01220083
Pressure 29.81 in
Visibility 10.0 miles
Clouds Clear
Dew Point 51 °F
Humidity 88%
Rainfall 0.00 in
Snow Depth Not available.
7:40 AM 7:31 PM
Waning Crescent, 8% visible
METAR KSBN 280354Z 11003KT 10SM CLR 12/08 A2981 RMK AO2 SLP092 T01220083

10-Day Weather Forecast

Almanac

Astronomy

Sep. 28, 2016 Rise Set
Actual Time
Civil Twilight
Nautical Twilight
Astronomical Twilight
Moon
Length of Visible Light
Length of Day
Tomorrow will be .
, % of the Moon is Illuminated

Today's Extremes

State Highs State Lows

Community

WunderPhotos

Upload Photos

1,942,209 photos uploaded!

WunderBlog® & News

Nearby

Air Quality

  Air Quality AQ Index Pollutant
Not available.

Snow Depth

Station Depth Elevation

Earthquake Activity

City Distance Mag. Time & Date
Minimum magnitude displayed is 2.5.

Coastal Water Temperatures

Place Temperature

Stations

Nearby Weather Stations

Station Location Temp. Windchill Dew Point Humidity Wind Precip. Elev Updated Type
                   

Watches & Warnings

There are currently no watches in effect.